Tollesbury, United Kingdom
Current Conditions -  °F | °C
As of 12:50 PM on Sunday 23 Nov 2014 (Local Time) from EGMC Reporting Station
Moderate Rain Moderate Rain  
Wind Chill: 41°   Ceiling: 700
Heat Index: 46°   Visibility: 4mi
Dew Point: 43°   Wind: 10mph
Humidity: 87%   Direction: 330°NNW
Pressure: 29.97"   Gusts: NA
Location:  51.76°N, 0.83°E
Report Text: EGMC 231250Z 33009KT 6000 RA BKN007 OVC012 08/06 Q1015
Loading
Personal Weather Stations






























Interactive Weather Map New forecast layout! Learn more

10-Day Weather Forecast

Advertisements
Track Severe Weather on mobile